Time;durP1;ratioP1;P1;durP2;ratioP2;P2;SDS_P1;SDS_P2;PMS_P1;PMS_P2;Temp;Humidity;BMP_temperature;BMP_pressure;BME280_temperature;BME280_humidity;BME280_pressure;Samples;Min_cycle;Max_cycle;Signal;HPM_P1;HPM_P2
2022/01/07 00:00:47;;;;;;;1.23;0.43;;;27.60;68.90;;;;;;4131237;28;20138;-47
2022/01/07 00:02:57;;;;;;;3.28;0.70;;;27.70;68.90;;;;;;4123284;28;21917;-49
2022/01/07 00:04:59;;;;;;;2.58;0.77;;;27.60;68.80;;;;;;4124567;28;20037;-49
2022/01/07 00:07:01;;;;;;;2.50;0.70;;;27.70;69.00;;;;;;4122009;28;20127;-47
2022/01/07 00:09:04;;;;;;;1.27;0.60;;;27.70;69.00;;;;;;4128750;28;20118;-48
2022/01/07 00:11:06;;;;;;;2.05;0.60;;;27.70;69.00;;;;;;4123644;28;22360;-47
2022/01/07 00:13:08;;;;;;;1.17;0.60;;;27.70;69.00;;;;;;4122061;28;20044;-49
2022/01/07 00:15:11;;;;;;;1.38;0.70;;;27.70;69.10;;;;;;4128315;28;20048;-47
2022/01/07 00:17:13;;;;;;;2.90;1.00;;;27.70;69.30;;;;;;4127079;28;20041;-48
2022/01/07 00:19:15;;;;;;;2.53;0.90;;;27.70;69.40;;;;;;4120455;28;20037;-49
2022/01/07 00:21:18;;;;;;;2.58;0.70;;;27.70;69.40;;;;;;4120408;28;20144;-45
2022/01/07 00:23:21;;;;;;;1.65;0.80;;;27.70;69.50;;;;;;4131286;28;20044;-49
2022/01/07 00:25:24;;;;;;;2.05;0.85;;;27.70;69.40;;;;;;4118319;28;20045;-47
2022/01/07 00:27:26;;;;;;;3.03;0.57;;;27.70;69.70;;;;;;4119595;28;20032;-50
2022/01/07 00:29:28;;;;;;;2.27;1.10;;;27.70;69.40;;;;;;4129196;28;20094;-48
2022/01/07 00:31:31;;;;;;;2.03;0.70;;;27.70;69.50;;;;;;4126761;28;20205;-49
2022/01/07 00:33:33;;;;;;;2.30;0.90;;;27.70;69.40;;;;;;4121806;28;20041;-47
2022/01/07 00:35:36;;;;;;;3.50;0.77;;;27.70;69.50;;;;;;4123038;28;20727;-49
2022/01/07 00:37:39;;;;;;;2.08;0.80;;;27.70;69.40;;;;;;4130656;28;20038;-51
2022/01/07 00:39:41;;;;;;;2.38;0.65;;;27.70;69.40;;;;;;4118803;28;20243;-52
2022/01/07 00:41:43;;;;;;;3.17;1.00;;;27.70;69.60;;;;;;4119882;28;20045;-50
2022/01/07 00:43:45;;;;;;;1.58;0.90;;;27.70;69.50;;;;;;4129538;28;20045;-50
2022/01/07 00:45:47;;;;;;;2.90;0.82;;;27.70;69.50;;;;;;4123033;28;20041;-49
2022/01/07 00:47:50;;;;;;;2.45;0.80;;;27.70;69.50;;;;;;4120775;28;20468;-45
2022/01/07 00:49:52;;;;;;;2.15;1.00;;;27.70;69.80;;;;;;4125303;28;20115;-49
2022/01/07 00:51:54;;;;;;;2.57;1.13;;;27.70;69.60;;;;;;4129219;28;20056;-46
2022/01/07 00:53:56;;;;;;;2.87;0.90;;;27.70;69.70;;;;;;4119103;28;20809;-46
2022/01/07 00:55:58;;;;;;;1.85;0.73;;;27.80;69.60;;;;;;4121487;28;20037;-47
2022/01/07 00:58:00;;;;;;;4.32;1.17;;;27.80;69.60;;;;;;4130148;28;20112;-48
2022/01/07 01:02:12;;;;;;;3.75;1.17;;;27.80;69.00;;;;;;4140029;27;20443;-48
2022/01/07 01:04:15;;;;;;;5.22;1.42;;;27.80;69.70;;;;;;4148479;28;20465;-47
2022/01/07 01:06:17;;;;;;;3.38;1.38;;;27.80;69.70;;;;;;4165459;28;20063;-47
2022/01/07 01:08:19;;;;;;;4.17;1.13;;;27.80;69.70;;;;;;4159193;28;22356;-48
2022/01/07 01:10:27;;;;;;;1.97;0.90;;;27.80;69.50;;;;;;4155228;28;20127;-46
2022/01/07 01:12:29;;;;;;;3.33;1.25;;;27.80;69.50;;;;;;4155214;28;20375;-47
2022/01/07 01:14:31;;;;;;;1.67;0.75;;;27.80;69.60;;;;;;4164345;28;20078;-49
2022/01/07 01:16:35;;;;;;;3.75;1.30;;;27.80;69.60;;;;;;4155543;28;22618;-49
2022/01/07 01:18:37;;;;;;;2.92;1.02;;;27.80;69.50;;;;;;4156800;28;20024;-44
2022/01/07 01:20:40;;;;;;;2.15;1.05;;;27.80;69.50;;;;;;4159912;28;20075;-50
2022/01/07 01:22:42;;;;;;;2.42;1.00;;;27.80;69.60;;;;;;4164367;28;20117;-44
2022/01/07 01:24:45;;;;;;;3.13;1.00;;;27.80;69.60;;;;;;4153651;28;20037;-47
2022/01/07 01:26:47;;;;;;;2.38;1.35;;;27.80;69.60;;;;;;4154596;28;20036;-47
2022/01/07 01:28:49;;;;;;;4.63;1.25;;;27.80;69.60;;;;;;4164579;28;20255;-47
2022/01/07 01:30:52;;;;;;;3.53;0.77;;;27.80;69.60;;;;;;4154352;28;20673;-47
2022/01/07 01:32:54;;;;;;;3.23;0.90;;;27.80;69.60;;;;;;4154026;28;20056;-47
2022/01/07 01:34:56;;;;;;;6.90;1.13;;;27.80;69.50;;;;;;4162910;28;20519;-45
2022/01/07 01:36:59;;;;;;;5.85;1.40;;;27.90;69.70;;;;;;4161505;28;21782;-46
2022/01/07 01:39:01;;;;;;;2.63;1.00;;;27.90;69.70;;;;;;4151713;28;20040;-50
2022/01/07 01:41:04;;;;;;;4.70;1.77;;;27.90;69.60;;;;;;4157632;28;20048;-52
2022/01/07 01:43:06;;;;;;;2.60;0.95;;;27.90;69.70;;;;;;4166082;28;20127;-50
2022/01/07 01:45:10;;;;;;;4.10;1.67;;;27.90;69.50;;;;;;4157741;28;20127;-49
2022/01/07 01:47:12;;;;;;;3.58;1.30;;;27.90;69.50;;;;;;4156102;28;20033;-50
2022/01/07 01:49:14;;;;;;;3.77;1.53;;;28.00;70.20;;;;;;4162448;28;20040;-47
2022/01/07 01:51:17;;;;;;;5.65;1.85;;;28.00;69.50;;;;;;4158218;28;21735;-47
2022/01/07 01:53:19;;;;;;;4.07;1.33;;;28.00;69.50;;;;;;4155294;28;20051;-48
2022/01/07 01:55:24;;;;;;;4.47;1.55;;;28.00;69.50;;;;;;4156782;28;20040;-50
2022/01/07 01:57:27;;;;;;;3.90;1.77;;;28.00;69.50;;;;;;4162736;28;20591;-48
2022/01/07 01:59:32;;;;;;;3.90;1.33;;;28.00;69.40;;;;;;4156694;28;22319;-53
2022/01/07 02:01:35;;;;;;;5.72;2.03;;;28.00;69.40;;;;;;4154420;28;20124;-50
2022/01/07 02:03:37;;;;;;;3.63;1.13;;;28.00;69.40;;;;;;4156671;28;21170;-52
2022/01/07 02:05:39;;;;;;;3.67;1.13;;;28.00;69.30;;;;;;4163429;28;20164;-48
2022/01/07 02:07:42;;;;;;;3.92;1.40;;;28.00;69.20;;;;;;4170625;28;20331;-50
2022/01/07 02:09:44;;;;;;;;;;;28.00;69.00;;;;;;4154378;28;20472;-48
2022/01/07 02:11:46;;;;;;;4.78;1.35;;;28.00;68.90;;;;;;4163304;28;20357;-46
2022/01/07 02:13:48;;;;;;;3.50;1.35;;;28.10;68.90;;;;;;4145074;28;20115;-47
2022/01/07 02:15:51;;;;;;;3.95;1.45;;;28.10;68.80;;;;;;4145480;28;20489;-46
2022/01/07 02:17:54;;;;;;;10.80;2.35;;;28.10;68.90;;;;;;4150627;28;20047;-47
2022/01/07 02:19:57;;;;;;;11.38;2.55;;;28.10;69.10;;;;;;4153288;28;20123;-48
2022/01/07 02:21:59;;;;;;;8.63;1.45;;;28.10;69.10;;;;;;4149467;28;20045;-47
2022/01/07 02:24:02;;;;;;;5.33;1.30;;;28.10;69.20;;;;;;4147674;28;20048;-51
2022/01/07 02:26:04;;;;;;;4.72;1.02;;;28.10;69.20;;;;;;4160084;28;20131;-45
2022/01/07 02:28:08;;;;;;;7.18;1.95;;;28.10;69.30;;;;;;4153702;28;21592;-46
2022/01/07 02:30:13;;;;;;;4.93;1.80;;;28.10;69.40;;;;;;4154285;28;20070;-47
2022/01/07 02:32:17;;;;;;;7.57;1.90;;;28.20;70.00;;;;;;4145032;28;20474;-43
2022/01/07 02:34:20;;;;;;;5.70;1.80;;;28.20;70.10;;;;;;4156872;28;20555;-43
2022/01/07 02:36:22;;;;;;;3.75;1.58;;;28.20;70.00;;;;;;4150582;28;21643;-46
2022/01/07 02:38:24;;;;;;;5.07;1.87;;;28.20;69.20;;;;;;4146683;28;20037;-44
2022/01/07 02:40:27;;;;;;;4.82;1.52;;;28.20;69.30;;;;;;4150556;28;20029;-50
2022/01/07 02:42:30;;;;;;;6.82;2.13;;;28.20;69.40;;;;;;4155059;28;20056;-48
2022/01/07 02:44:32;;;;;;;5.55;2.13;;;28.30;69.50;;;;;;4140890;28;20028;-48
2022/01/07 02:46:34;;;;;;;6.20;1.77;;;28.30;69.60;;;;;;4143611;28;20988;-46
2022/01/07 02:48:36;;;;;;;7.85;1.90;;;28.30;69.60;;;;;;4153101;28;20301;-47
2022/01/07 02:50:39;;;;;;;6.00;2.00;;;28.30;69.60;;;;;;4143757;28;20060;-49
2022/01/07 02:52:41;;;;;;;9.90;2.28;;;28.30;69.50;;;;;;4143195;28;20044;-48
2022/01/07 02:54:44;;;;;;;3.83;1.52;;;28.40;70.10;;;;;;4148102;28;20197;-50
2022/01/07 02:56:46;;;;;;;8.05;2.10;;;28.40;70.60;;;;;;4146273;28;20683;-47
2022/01/07 02:58:48;;;;;;;3.47;1.77;;;28.40;70.70;;;;;;4139374;28;20044;-45
2022/01/07 03:00:50;;;;;;;3.80;1.60;;;28.40;71.10;;;;;;4130891;28;20303;-48
2022/01/07 03:02:54;;;;;;;6.65;1.83;;;28.40;71.10;;;;;;4150937;28;20040;-46
2022/01/07 03:04:56;;;;;;;6.05;1.77;;;28.50;71.50;;;;;;4142237;28;21506;-48
2022/01/07 03:06:58;;;;;;;3.23;1.30;;;28.50;70.90;;;;;;4139190;28;20037;-47
2022/01/07 03:09:01;;;;;;;3.70;1.67;;;28.50;70.80;;;;;;4148485;28;20299;-49
2022/01/07 03:11:03;;;;;;;4.45;1.90;;;28.50;70.90;;;;;;4147030;28;20285;-49
2022/01/07 03:13:06;;;;;;;4.05;1.30;;;28.50;71.10;;;;;;4140436;28;20120;-45
2022/01/07 03:15:09;;;;;;;4.68;1.60;;;28.50;71.20;;;;;;4141172;28;20029;-48
2022/01/07 03:17:11;;;;;;;4.70;1.40;;;28.50;71.40;;;;;;4152800;28;20051;-48
2022/01/07 03:19:13;;;;;;;2.50;1.10;;;28.50;71.40;;;;;;4141987;28;20032;-47
2022/01/07 03:21:15;;;;;;;3.70;1.42;;;28.50;71.50;;;;;;4141492;28;20040;-48
2022/01/07 03:23:17;;;;;;;4.87;1.60;;;28.50;71.60;;;;;;4151848;28;20029;-48
2022/01/07 03:25:20;;;;;;;4.68;1.58;;;28.50;71.40;;;;;;4145010;28;22131;-49
2022/01/07 03:27:22;;;;;;;3.40;1.20;;;28.50;71.40;;;;;;4140532;28;20138;-48
2022/01/07 03:29:25;;;;;;;2.87;1.27;;;28.50;71.40;;;;;;4144279;28;20045;-46
2022/01/07 03:31:27;;;;;;;4.43;1.42;;;28.50;71.50;;;;;;4152566;28;20033;-47
2022/01/07 03:33:29;;;;;;;3.83;1.60;;;28.50;71.50;;;;;;4140067;28;20037;-51
2022/01/07 03:35:31;;;;;;;4.63;1.48;;;28.50;71.40;;;;;;4142454;28;20062;-47
2022/01/07 03:37:33;;;;;;;4.97;1.63;;;28.60;71.30;;;;;;4150723;28;20036;-49
2022/01/07 03:39:36;;;;;;;5.57;1.77;;;28.60;71.30;;;;;;4139857;28;20419;-47
2022/01/07 03:41:38;;;;;;;4.83;1.50;;;28.60;71.40;;;;;;4135776;28;20088;-49
2022/01/07 03:43:40;;;;;;;5.63;1.58;;;28.60;71.30;;;;;;4150546;28;20289;-48
2022/01/07 03:45:42;;;;;;;3.53;1.58;;;28.60;71.20;;;;;;4145362;28;20694;-48
2022/01/07 03:47:45;;;;;;;4.93;1.70;;;28.70;71.10;;;;;;4138417;28;20637;-55
2022/01/07 03:49:47;;;;;;;5.47;1.77;;;28.70;70.90;;;;;;4140844;28;20052;-49
2022/01/07 03:51:49;;;;;;;3.95;1.27;;;28.70;70.70;;;;;;4146283;28;20380;-47
2022/01/07 03:53:51;;;;;;;4.23;1.47;;;28.70;70.40;;;;;;4138704;28;20040;-49
2022/01/07 03:55:53;;;;;;;3.20;1.17;;;28.70;70.20;;;;;;4139545;28;20087;-48
2022/01/07 03:57:56;;;;;;;3.13;1.50;;;28.70;70.20;;;;;;4149111;28;20392;-52
2022/01/07 03:59:58;;;;;;;;;;;28.70;70.00;;;;;;4143140;28;20037;-46
2022/01/07 04:02:00;;;;;;;6.07;1.60;;;28.70;69.80;;;;;;4140374;28;19920;-48
2022/01/07 04:04:02;;;;;;;6.30;1.83;;;28.70;69.80;;;;;;4143428;28;20084;-53
2022/01/07 04:06:04;;;;;;;4.22;1.25;;;28.80;69.80;;;;;;4150392;28;20067;-50
2022/01/07 04:08:07;;;;;;;4.03;1.58;;;28.80;69.60;;;;;;4137625;28;20324;-48
2022/01/07 04:10:09;;;;;;;;;;;28.80;69.50;;;;;;4141470;28;20033;-49
2022/01/07 04:12:11;;;;;;;3.85;1.60;;;28.80;69.50;;;;;;4148191;28;19924;-48
2022/01/07 04:14:13;;;;;;;3.47;1.70;;;28.80;69.40;;;;;;4140323;28;20141;-46
2022/01/07 04:16:15;;;;;;;3.58;1.35;;;28.80;69.20;;;;;;4138223;28;20209;-47
2022/01/07 04:18:18;;;;;;;3.05;1.15;;;28.90;69.30;;;;;;4147495;28;20074;-47
2022/01/07 04:20:23;;;;;;;3.63;1.50;;;28.80;69.10;;;;;;4146337;28;20123;-49
2022/01/07 04:22:25;;;;;;;2.90;1.40;;;28.90;69.30;;;;;;4142427;28;20079;-48
2022/01/07 04:24:27;;;;;;;3.90;1.77;;;28.80;69.10;;;;;;4142216;28;20048;-46
2022/01/07 04:26:29;;;;;;;3.23;1.40;;;28.80;69.10;;;;;;4147647;28;20109;-49
2022/01/07 04:28:31;;;;;;;3.40;1.48;;;28.90;69.10;;;;;;4138455;28;20293;-45
2022/01/07 04:30:37;;;;;;;4.03;1.50;;;28.80;69.00;;;;;;4138693;28;20140;-45
2022/01/07 04:32:40;;;;;;;2.05;1.20;;;28.80;69.00;;;;;;4145414;28;20033;-48
2022/01/07 04:34:42;;;;;;;3.40;1.25;;;28.90;69.00;;;;;;4146735;28;20492;-50
2022/01/07 04:36:44;;;;;;;4.33;1.47;;;28.90;68.90;;;;;;4139061;28;20059;-46
2022/01/07 04:38:46;;;;;;;4.00;1.57;;;28.90;68.80;;;;;;4138488;28;20089;-50
2022/01/07 04:40:49;;;;;;;4.53;1.40;;;28.90;68.70;;;;;;4148142;28;20037;-58
2022/01/07 04:42:51;;;;;;;4.60;1.50;;;28.90;69.10;;;;;;4129717;28;20044;-56
2022/01/07 04:44:53;;;;;;;8.73;1.90;;;29.00;69.00;;;;;;4138561;28;20565;-48
2022/01/07 04:46:56;;;;;;;5.30;2.00;;;29.00;68.90;;;;;;4143228;28;20048;-55
2022/01/07 04:48:58;;;;;;;4.18;1.58;;;29.10;68.80;;;;;;4140047;28;20066;-47
2022/01/07 04:51:00;;;;;;;3.87;1.70;;;29.10;68.60;;;;;;4136436;28;20782;-54
2022/01/07 04:53:03;;;;;;;4.63;1.85;;;29.20;68.60;;;;;;4137119;28;20052;-52
2022/01/07 04:55:06;;;;;;;5.82;1.70;;;29.20;68.50;;;;;;4146804;28;20495;-60
2022/01/07 04:57:08;;;;;;;5.50;1.67;;;29.20;68.30;;;;;;4137468;28;20048;-51
2022/01/07 04:59:10;;;;;;;5.80;2.00;;;29.20;68.30;;;;;;4136649;28;20043;-50
2022/01/07 05:01:13;;;;;;;6.63;2.17;;;29.20;68.30;;;;;;4132249;28;20302;-46
2022/01/07 05:03:15;;;;;;;6.97;2.20;;;29.20;68.20;;;;;;4126037;28;21703;-49
2022/01/07 05:05:17;;;;;;;12.60;3.57;;;29.30;68.20;;;;;;4136232;28;20104;-57
2022/01/07 05:07:20;;;;;;;14.07;4.18;;;29.20;67.30;;;;;;4138302;28;20368;-61
2022/01/07 05:09:22;;;;;;;12.37;4.27;;;29.20;67.00;;;;;;4145850;28;20036;-61
2022/01/07 05:11:24;;;;;;;16.30;4.70;;;29.10;67.20;;;;;;4138334;28;20151;-62
2022/01/07 05:13:27;;;;;;;13.23;5.20;;;29.10;67.50;;;;;;4137766;28;20795;-65
2022/01/07 05:15:28;;;;;;;;;;;29.00;67.40;;;;;;4145644;28;20111;-62
2022/01/07 05:17:30;;;;;;;13.65;4.75;;;29.00;67.60;;;;;;4137955;28;22471;-61
2022/01/07 05:19:33;;;;;;;14.03;4.67;;;29.00;67.70;;;;;;4139414;28;20102;-62
2022/01/07 05:21:35;;;;;;;16.57;4.87;;;28.90;67.80;;;;;;4141939;28;20814;-61
2022/01/07 05:23:37;;;;;;;15.43;4.80;;;28.90;67.70;;;;;;4146129;28;20275;-61
2022/01/07 05:25:39;;;;;;;14.03;4.90;;;28.90;67.70;;;;;;4137011;28;20155;-61
2022/01/07 05:27:42;;;;;;;21.30;4.60;;;28.80;67.70;;;;;;4139656;28;20110;-61
2022/01/07 05:29:44;;;;;;;17.60;4.38;;;28.80;67.80;;;;;;4145166;28;20373;-60
2022/01/07 05:31:46;;;;;;;17.38;4.97;;;28.80;68.00;;;;;;4135027;28;20046;-63
2022/01/07 05:33:48;;;;;;;20.93;5.30;;;28.80;68.10;;;;;;4138052;28;20040;-62
2022/01/07 05:35:51;;;;;;;17.95;5.60;;;28.70;68.10;;;;;;4149344;28;20051;-61
2022/01/07 05:37:53;;;;;;;17.92;5.80;;;28.80;68.20;;;;;;4136758;28;20043;-61
2022/01/07 05:39:57;;;;;;;17.83;5.40;;;28.70;68.10;;;;;;4140785;28;20663;-61
2022/01/07 05:41:59;;;;;;;16.20;4.82;;;28.70;68.10;;;;;;4142808;28;20059;-61
2022/01/07 05:44:02;;;;;;;16.92;4.95;;;28.70;68.30;;;;;;4148135;28;20126;-61
2022/01/07 05:46:04;;;;;;;14.40;4.88;;;28.70;68.40;;;;;;4140760;28;20044;-60
2022/01/07 05:48:06;;;;;;;17.88;5.47;;;28.70;68.40;;;;;;4141715;28;20043;-61
2022/01/07 05:50:09;;;;;;;17.87;5.37;;;28.60;68.40;;;;;;4154750;28;21385;-60
2022/01/07 05:52:11;;;;;;;19.67;5.35;;;28.60;68.40;;;;;;4142465;28;21334;-61
2022/01/07 05:54:14;;;;;;;14.20;4.67;;;28.60;68.50;;;;;;4142343;28;20067;-60
2022/01/07 05:56:16;;;;;;;17.25;5.85;;;28.60;68.50;;;;;;4146765;28;20295;-59
2022/01/07 05:58:18;;;;;;;19.42;5.38;;;28.50;68.40;;;;;;4149981;28;20634;-60
2022/01/07 06:00:20;;;;;;;18.07;5.07;;;28.50;68.40;;;;;;4139298;28;20255;-59
2022/01/07 06:02:23;;;;;;;13.48;4.57;;;28.50;68.50;;;;;;4142421;28;20436;-60
2022/01/07 06:04:25;;;;;;;21.25;5.15;;;28.40;68.50;;;;;;4153317;28;20032;-59
2022/01/07 06:06:27;;;;;;;19.30;5.53;;;28.40;68.50;;;;;;4146331;28;20040;-59
2022/01/07 06:08:29;;;;;;;13.85;4.10;;;28.40;68.70;;;;;;4137134;28;20041;-60
2022/01/07 06:10:31;;;;;;;19.33;5.40;;;28.30;68.80;;;;;;4151990;28;20211;-60
2022/01/07 06:12:34;;;;;;;17.95;5.10;;;28.30;69.00;;;;;;4146345;28;20052;-60
2022/01/07 06:14:36;;;;;;;15.15;4.82;;;28.30;69.00;;;;;;4140656;28;21299;-61
2022/01/07 06:16:39;;;;;;;15.33;5.07;;;28.30;69.20;;;;;;4146766;28;20040;-62
2022/01/07 06:19:02;;;;;;;16.55;5.22;;;28.20;69.20;;;;;;4152623;28;20060;-61
2022/01/07 06:21:03;;;;;;;16.83;5.50;;;28.20;69.20;;;;;;4149285;28;20032;-59
2022/01/07 06:23:05;;;;;;;17.88;5.07;;;28.20;70.00;;;;;;4153613;28;20040;-58
2022/01/07 06:25:08;;;;;;;17.60;4.40;;;28.20;69.40;;;;;;4148162;28;20072;-58
2022/01/07 06:27:10;;;;;;;14.00;4.80;;;28.20;69.40;;;;;;4145482;28;20047;-58
2022/01/07 06:29:13;;;;;;;17.60;5.07;;;28.30;69.60;;;;;;4151397;28;20040;-58
2022/01/07 06:31:16;;;;;;;18.88;5.00;;;28.40;69.70;;;;;;4148629;28;20036;-58
2022/01/07 06:33:18;;;;;;;14.13;4.67;;;28.40;69.60;;;;;;4138313;28;20057;-65
2022/01/07 06:35:21;;;;;;;10.45;3.60;;;28.40;69.60;;;;;;4129274;28;20029;-63
2022/01/07 06:37:23;;;;;;;9.07;3.53;;;28.40;67.00;;;;;;4134620;28;20040;-62
2022/01/07 06:39:28;;;;;;;8.53;3.10;;;28.30;64.50;;;;;;4126764;28;20155;-62
2022/01/07 06:41:31;;;;;;;5.00;2.30;;;28.20;62.80;;;;;;4125403;28;20049;-60
2022/01/07 06:43:33;;;;;;;7.43;2.70;;;28.00;61.10;;;;;;4136696;28;20041;-61
2022/01/07 06:45:36;;;;;;;4.88;2.28;;;27.90;60.10;;;;;;4125565;28;20048;-61
2022/01/07 06:47:38;;;;;;;5.07;2.50;;;27.80;59.20;;;;;;4116941;28;21236;-62
2022/01/07 06:49:40;;;;;;;4.57;2.13;;;27.70;58.60;;;;;;4117364;28;20503;-65
2022/01/07 06:51:43;;;;;;;4.50;2.50;;;27.60;58.20;;;;;;4128341;28;20049;-64
2022/01/07 06:53:45;;;;;;;5.50;2.38;;;27.50;57.70;;;;;;4112203;28;20896;-63
2022/01/07 06:55:47;;;;;;;5.75;2.50;;;27.40;57.60;;;;;;4116198;28;20170;-63
2022/01/07 06:57:49;;;;;;;4.93;2.35;;;27.30;57.10;;;;;;4124841;28;20144;-63
2022/01/07 06:59:52;;;;;;;4.33;2.23;;;27.20;56.80;;;;;;4120683;28;20407;-63
2022/01/07 07:12:39;;;;;;;4.30;2.10;;;27.10;56.20;;;;;;5060483;22;3203300;-64
2022/01/07 07:14:41;;;;;;;4.97;2.38;;;26.70;55.60;;;;;;5183416;22;20242;-62
2022/01/07 07:16:44;;;;;;;4.10;2.40;;;26.60;55.60;;;;;;5177939;22;20011;-64
2022/01/07 07:18:46;;;;;;;6.93;2.30;;;26.50;55.60;;;;;;5184840;22;20015;-65
2022/01/07 07:20:48;;;;;;;5.82;2.30;;;26.40;55.70;;;;;;5187529;22;20015;-64
2022/01/07 07:22:50;;;;;;;6.20;2.33;;;26.30;55.70;;;;;;5179448;22;20015;-64
2022/01/07 07:24:53;;;;;;;4.32;2.00;;;26.20;55.70;;;;;;5183044;22;20077;-64
2022/01/07 07:26:57;;;;;;;5.15;2.30;;;26.10;55.60;;;;;;5188591;22;20094;-63
2022/01/07 07:28:59;;;;;;;4.40;2.33;;;26.10;56.50;;;;;;5180221;22;20423;-64
2022/01/07 07:31:04;;;;;;;5.05;2.25;;;26.00;55.60;;;;;;5180840;22;20015;-63
2022/01/07 07:33:56;;;;;;;6.03;2.42;;;25.90;55.80;;;;;;5180689;22;20017;-66
2022/01/07 07:37:50;;;;;;;5.85;2.50;;;25.80;55.70;;;;;;5184751;22;20018;-63
2022/01/07 07:39:53;;;;;;;4.10;2.08;;;25.70;55.90;;;;;;5145731;22;20019;-62
2022/01/07 07:41:55;;;;;;;5.30;2.50;;;25.60;56.80;;;;;;5178931;22;20035;-63
2022/01/07 07:43:57;;;;;;;5.55;2.42;;;25.50;56.10;;;;;;5151121;22;20023;-62
2022/01/07 07:46:00;;;;;;;4.40;1.98;;;25.40;56.30;;;;;;5176594;22;20026;-64
2022/01/07 07:48:02;;;;;;;5.55;2.63;;;25.30;56.30;;;;;;5177620;22;20015;-65
2022/01/07 07:50:05;;;;;;;6.07;2.40;;;25.30;56.30;;;;;;5183975;22;20369;-63
2022/01/07 07:52:07;;;;;;;7.72;2.05;;;25.20;56.30;;;;;;5183344;22;20015;-63
2022/01/07 07:54:10;;;;;;;4.25;2.08;;;25.10;56.30;;;;;;5180122;22;20477;-62
2022/01/07 07:56:15;;;;;;;6.13;2.47;;;25.10;56.30;;;;;;5186958;22;20528;-61
2022/01/07 07:58:17;;;;;;;5.45;2.40;;;25.00;56.20;;;;;;5192956;22;20010;-60
2022/01/07 08:00:19;;;;;;;3.63;1.98;;;24.90;56.60;;;;;;5149279;22;20110;-63
2022/01/07 08:02:22;;;;;;;3.80;1.70;;;24.80;56.40;;;;;;5182708;22;20106;-64
2022/01/07 08:04:24;;;;;;;4.60;2.15;;;24.80;56.50;;;;;;5155195;22;20011;-65
2022/01/07 08:06:27;;;;;;;3.80;2.10;;;24.70;56.20;;;;;;5188003;22;20010;-67
2022/01/07 08:08:29;;;;;;;5.25;2.33;;;24.70;56.30;;;;;;5186198;22;20015;-67
2022/01/07 08:10:32;;;;;;;5.80;2.22;;;;;;;;;;5187570;22;20053;-68
2022/01/07 08:17:16;;;;;;;4.22;2.33;;;;;;;;;;5179494;22;20053;-64
2022/01/07 08:19:19;;;;;;;4.50;2.40;;;24.60;56.10;;;;;;5182021;22;20028;-63
2022/01/07 08:21:24;;;;;;;3.30;1.85;;;24.30;57.00;;;;;;5150547;22;20023;-64
2022/01/07 08:23:27;;;;;;;4.20;2.20;;;24.20;56.20;;;;;;5179424;22;20011;-65
2022/01/07 08:25:29;;;;;;;5.60;2.03;;;24.10;57.00;;;;;;5179625;22;20015;-65
2022/01/07 08:27:31;;;;;;;3.33;1.90;;;24.10;57.00;;;;;;5184779;22;20019;-65
2022/01/07 08:29:36;;;;;;;4.25;2.35;;;24.10;57.70;;;;;;5185219;22;20022;-51
2022/01/07 08:36:04;;;;;;;4.25;2.40;;;24.30;59.30;;;;;;5180764;22;20027;-48
2022/01/07 08:38:06;;;;;;;6.82;2.50;;;24.40;60.20;;;;;;5179930;22;20019;-58
2022/01/07 08:40:10;;;;;;;4.68;2.17;;;24.50;60.30;;;;;;5189572;22;20022;-59
2022/01/07 08:42:12;;;;;;;4.80;2.35;;;24.50;60.60;;;;;;5185448;22;20030;-58
2022/01/07 08:44:15;;;;;;;4.20;2.10;;;24.60;61.10;;;;;;5180917;22;20188;-60
2022/01/07 08:46:17;;;;;;;7.10;2.55;;;24.60;61.30;;;;;;5181351;22;20118;-53
2022/01/07 08:48:19;;;;;;;5.95;2.95;;;24.70;61.70;;;;;;5186795;22;20018;-51
2022/01/07 08:50:22;;;;;;;8.38;2.47;;;24.70;61.80;;;;;;5177721;22;20015;-60
2022/01/07 08:52:24;;;;;;;12.25;2.97;;;24.80;62.90;;;;;;5180156;22;20053;-50
2022/01/07 08:54:26;;;;;;;6.13;2.38;;;24.80;63.10;;;;;;5189165;22;20019;-48
2022/01/07 08:56:28;;;;;;;7.13;2.53;;;24.90;63.30;;;;;;5183083;22;20110;-48
2022/01/07 08:58:30;;;;;;;6.50;2.70;;;24.90;63.50;;;;;;5179256;22;20019;-50
2022/01/07 09:00:33;;;;;;;9.13;3.17;;;25.00;63.80;;;;;;5177324;22;20010;-53
2022/01/07 09:02:35;;;;;;;11.07;2.70;;;25.00;64.00;;;;;;5175580;22;20027;-42
2022/01/07 09:04:38;;;;;;;8.23;2.70;;;25.10;64.10;;;;;;5174578;22;20775;-43
2022/01/07 09:06:40;;;;;;;6.97;3.13;;;25.10;64.00;;;;;;5178403;22;20077;-57
2022/01/07 09:08:42;;;;;;;7.35;2.60;;;25.10;64.20;;;;;;5187317;22;20015;-43
2022/01/07 09:10:45;;;;;;;7.75;3.00;;;25.10;64.20;;;;;;5178936;22;21216;-46
2022/01/07 09:12:47;;;;;;;;;;;25.20;64.40;;;;;;5181195;22;20027;-55
2022/01/07 09:14:49;;;;;;;5.65;2.33;;;25.20;64.30;;;;;;5185633;22;19907;-52
2022/01/07 09:16:51;;;;;;;7.50;2.63;;;25.30;64.50;;;;;;5183867;22;20026;-48
2022/01/07 09:18:53;;;;;;;5.88;2.63;;;25.30;64.60;;;;;;5178614;22;20071;-43
2022/01/07 09:20:55;;;;;;;14.75;3.72;;;25.30;64.70;;;;;;5181828;22;20033;-46
2022/01/07 09:22:57;;;;;;;8.10;2.70;;;25.30;64.70;;;;;;5183799;22;20119;-48
2022/01/07 09:25:00;;;;;;;9.15;2.95;;;25.40;64.90;;;;;;5179271;22;20117;-46
2022/01/07 09:27:02;;;;;;;7.25;3.08;;;25.40;64.90;;;;;;5170284;22;20076;-47
2022/01/07 09:29:04;;;;;;;9.35;2.83;;;25.40;65.30;;;;;;5187480;22;20019;-49
2022/01/07 09:31:06;;;;;;;9.00;2.72;;;25.40;68.30;;;;;;5179576;22;21015;-47
2022/01/07 09:33:08;;;;;;;8.10;3.40;;;25.50;68.90;;;;;;5178849;22;20140;-46
2022/01/07 09:35:11;;;;;;;8.77;3.10;;;25.50;68.30;;;;;;5129335;22;20427;-44
2022/01/07 09:37:13;;;;;;;8.32;2.60;;;25.60;68.80;;;;;;5041322;23;20043;-48
2022/01/07 09:39:15;;;;;;;7.55;2.90;;;25.60;68.80;;;;;;5123424;23;20074;-46
2022/01/07 09:41:18;;;;;;;9.77;3.75;;;25.60;69.30;;;;;;5121577;23;20221;-51
2022/01/07 09:43:20;;;;;;;17.80;4.63;;;25.70;70.60;;;;;;5108399;23;20028;-46
2022/01/07 09:45:24;;;;;;;20.42;5.00;;;25.70;72.10;;;;;;5103705;23;20040;-47
2022/01/07 09:47:28;;;;;;;18.92;5.53;;;25.70;71.80;;;;;;5092626;23;20220;-46
2022/01/07 09:49:33;;;;;;;17.17;4.90;;;25.80;72.40;;;;;;5108670;23;20013;-49
2022/01/07 09:51:38;;;;;;;18.23;5.05;;;25.80;72.70;;;;;;5113232;23;20020;-46
2022/01/07 09:53:40;;;;;;;20.10;5.50;;;25.80;72.80;;;;;;5108641;23;20472;-49
2022/01/07 09:55:44;;;;;;;20.13;6.07;;;25.90;73.50;;;;;;5105978;23;20090;-46
2022/01/07 09:57:46;;;;;;;22.92;5.55;;;25.90;73.00;;;;;;5109697;23;20020;-46
2022/01/07 09:59:54;;;;;;;13.53;4.77;;;25.90;73.10;;;;;;5111785;23;20112;-46
2022/01/07 10:02:17;;;;;;;16.55;5.45;;;25.90;72.50;;;;;;4154934;27;20432;-45
2022/01/07 10:04:31;;;;;;;19.30;4.82;;;25.90;73.20;;;;;;4164144;28;20058;-45
2022/01/07 10:06:33;;;;;;;13.80;4.80;;;25.90;73.60;;;;;;4160276;28;20085;-46
2022/01/07 10:08:35;;;;;;;17.48;5.35;;;26.00;73.10;;;;;;4164366;28;20280;-48
2022/01/07 10:10:38;;;;;;;17.42;5.22;;;26.00;73.10;;;;;;4154741;28;20367;-46
2022/01/07 10:12:56;;;;;;;15.05;4.40;;;26.00;73.00;;;;;;4156671;28;20040;-45
2022/01/07 10:15:16;;;;;;;17.17;5.35;;;26.00;72.90;;;;;;4153827;28;20041;-51
2022/01/07 10:17:18;;;;;;;12.95;3.97;;;26.10;72.30;;;;;;4155650;28;20044;-44
2022/01/07 10:19:33;;;;;;;18.15;5.53;;;26.10;72.60;;;;;;4154369;28;20458;-47
2022/01/07 10:21:35;;;;;;;21.05;5.32;;;26.10;72.60;;;;;;4157242;28;20052;-49
2022/01/07 10:23:39;;;;;;;18.77;5.28;;;26.10;72.60;;;;;;4160983;28;20036;-48
2022/01/07 10:25:43;;;;;;;15.68;4.72;;;26.10;72.60;;;;;;4163282;28;20113;-47
2022/01/07 10:27:45;;;;;;;16.98;4.70;;;26.10;72.60;;;;;;4157048;28;20487;-45
2022/01/07 10:29:47;;;;;;;18.30;5.07;;;26.10;72.60;;;;;;4156325;28;20171;-45
2022/01/07 10:31:50;;;;;;;16.23;5.03;;;26.20;72.70;;;;;;4165287;28;21687;-47
2022/01/07 10:33:53;;;;;;;21.58;5.32;;;26.20;72.70;;;;;;4156231;28;20111;-50
2022/01/07 10:36:08;;;;;;;15.55;4.95;;;26.20;72.30;;;;;;4157199;28;20072;-47
2022/01/07 10:38:19;;;;;;;16.92;4.95;;;26.30;72.80;;;;;;4154672;28;20040;-43
2022/01/07 10:40:35;;;;;;;14.07;4.55;;;26.30;72.50;;;;;;4155666;28;20032;-43
2022/01/07 10:42:38;;;;;;;15.07;4.88;;;26.30;72.40;;;;;;4160560;28;20480;-43
2022/01/07 10:45:01;;;;;;;14.75;4.63;;;26.30;72.60;;;;;;4161542;28;20060;-43
2022/01/07 10:47:08;;;;;;;;;;;26.30;72.40;;;;;;4163050;28;20051;-44
2022/01/07 10:49:11;;;;;;;18.13;5.70;;;26.40;72.80;;;;;;4156958;28;19916;-47
2022/01/07 10:51:20;;;;;;;17.55;5.18;;;26.40;73.30;;;;;;4162850;28;20065;-47
2022/01/07 10:53:29;;;;;;;18.38;5.05;;;26.40;72.50;;;;;;4159872;28;20075;-43
2022/01/07 10:55:32;;;;;;;17.95;4.85;;;26.40;72.80;;;;;;4160842;28;20048;-47
2022/01/07 10:57:43;;;;;;;18.40;4.88;;;26.40;72.60;;;;;;4163986;28;20064;-43
2022/01/07 11:00:05;;;;;;;14.00;5.05;;;26.40;72.50;;;;;;4162702;28;20044;-44
2022/01/07 11:02:07;;;;;;;17.23;5.05;;;26.40;72.30;;;;;;4165305;28;21240;-46
2022/01/07 11:04:13;;;;;;;21.55;5.53;;;26.40;72.40;;;;;;4164821;28;20040;-44